Time;durP1;ratioP1;P1;durP2;ratioP2;P2;SDS_P1;SDS_P2;PMS_P1;PMS_P2;Temp;Humidity;BMP_temperature;BMP_pressure;BME280_temperature;BME280_humidity;BME280_pressure;Samples;Min_cycle;Max_cycle;Signal;HPM_P1;HPM_P2
2023/12/28 00:04:05;;;;;;;5.30;3.80;;;;;;;;;;10293269;28;20068;-54
2023/12/28 00:09:03;;;;;;;4.28;3.58;;;;;;;;;;10291307;28;20076;-53
2023/12/28 00:14:10;;;;;;;6.03;4.45;;;;;;;;;;10290108;28;20084;-54
2023/12/28 00:19:09;;;;;;;4.80;4.20;;;;;;;;;;10291976;28;20104;-53
2023/12/28 00:24:07;;;;;;;4.85;4.35;;;;;;;;;;10292240;28;20527;-53
2023/12/28 00:29:05;;;;;;;6.00;4.53;;;;;;;;;;10289900;28;20061;-52
2023/12/28 00:34:05;;;;;;;4.38;3.85;;;;;;;;;;10293054;28;20100;-52
2023/12/28 00:39:03;;;;;;;5.47;4.80;;;;;;;;;;10286067;28;20069;-52
2023/12/28 00:44:02;;;;;;;5.85;4.90;;;;;;;;;;10291777;28;20072;-52
2023/12/28 00:49:00;;;;;;;6.10;4.15;;;;;;;;;;10296262;28;20506;-51
2023/12/28 00:54:00;;;;;;;6.38;3.75;;;;;;;;;;10298357;28;20072;-53
2023/12/28 00:58:58;;;;;;;5.97;4.35;;;;;;;;;;10284727;28;20060;-55
2023/12/28 01:03:56;;;;;;;5.55;4.47;;;;;;;;;;10290631;28;20510;-57
2023/12/28 01:08:54;;;;;;;5.03;4.22;;;;;;;;;;10290213;28;20065;-54
2023/12/28 01:13:54;;;;;;;7.00;4.55;;;;;;;;;;10289249;28;20068;-53
2023/12/28 01:18:52;;;;;;;4.97;4.22;;;;;;;;;;10290861;28;20091;-51
2023/12/28 01:23:51;;;;;;;5.70;4.82;;;;;;;;;;10287947;28;20095;-52
2023/12/28 01:28:49;;;;;;;5.70;4.65;;;;;;;;;;10288012;28;20069;-53
2023/12/28 01:33:49;;;;;;;9.15;4.38;;;;;;;;;;10288876;28;20080;-54
2023/12/28 01:38:47;;;;;;;4.15;3.75;;;;;;;;;;10288569;28;20083;-52
2023/12/28 01:43:46;;;;;;;6.40;4.28;;;;;;;;;;10286006;28;20646;-54
2023/12/28 01:48:45;;;;;;;6.95;4.55;;;;;;;;;;10290345;28;20482;-54
2023/12/28 01:53:46;;;;;;;5.65;4.85;;;;;;;;;;10287848;28;20103;-55
2023/12/28 01:58:45;;;;;;;5.35;4.38;;;;;;;;;;10288349;28;20068;-53
2023/12/28 02:03:44;;;;;;;5.53;4.55;;;;;;;;;;10295479;28;20198;-54
2023/12/28 02:08:42;;;;;;;5.45;4.20;;;;;;;;;;10286799;28;20077;-55
2023/12/28 02:13:42;;;;;;;6.32;4.55;;;;;;;;;;10285864;28;20079;-51
2023/12/28 02:18:42;;;;;;;8.10;4.22;;;;;;;;;;10285987;28;20087;-52
2023/12/28 02:23:46;;;;;;;4.10;3.50;;;;;;;;;;10286909;28;20041;-51
2023/12/28 02:28:46;;;;;;;4.83;4.10;;;;;;;;;;10287968;28;20049;-54
2023/12/28 02:33:47;;;;;;;6.13;4.45;;;;;;;;;;10286766;28;20076;-50
2023/12/28 02:38:47;;;;;;;4.60;4.13;;;;;;;;;;10286988;28;20458;-51
2023/12/28 02:43:47;;;;;;;6.03;4.25;;;;;;;;;;10286449;28;20465;-52
2023/12/28 02:48:46;;;;;;;4.93;4.30;;;;;;;;;;10297055;28;20080;-54
2023/12/28 02:53:44;;;;;;;9.82;4.72;;;;;;;;;;10303611;28;20482;-52
2023/12/28 02:58:42;;;;;;;6.75;4.18;;;;;;;;;;10286487;28;20075;-54
2023/12/28 03:03:42;;;;;;;5.47;4.25;;;;;;;;;;10285954;28;20470;-52
2023/12/28 03:08:40;;;;;;;4.38;3.88;;;;;;;;;;10281665;28;20075;-55
2023/12/28 03:13:39;;;;;;;6.35;4.22;;;;;;;;;;10281603;28;20081;-53
2023/12/28 03:18:37;;;;;;;9.65;4.32;;;;;;;;;;10294482;28;20088;-52
2023/12/28 03:23:37;;;;;;;6.47;4.65;;;;;;;;;;10284973;28;20037;-54
2023/12/28 03:28:36;;;;;;;4.80;3.92;;;;;;;;;;10284393;28;20049;-51
2023/12/28 03:33:34;;;;;;;4.30;3.85;;;;;;;;;;10284657;28;20080;-52
2023/12/28 03:38:32;;;;;;;5.45;4.57;;;;;;;;;;10285288;28;20084;-54
2023/12/28 03:43:32;;;;;;;4.25;3.60;;;;;;;;;;10284847;28;20076;-47
2023/12/28 03:48:30;;;;;;;6.10;4.10;;;;;;;;;;10286969;28;20076;-52
2023/12/28 03:53:29;;;;;;;7.93;4.25;;;;;;;;;;10286167;28;20072;-51
2023/12/28 03:58:27;;;;;;;8.27;4.25;;;;;;;;;;10285051;28;20064;-52
2023/12/28 04:03:26;;;;;;;5.30;4.28;;;;;;;;;;10280846;28;20049;-53
2023/12/28 04:08:25;;;;;;;8.38;5.28;;;;;;;;;;10291880;28;20064;-50
2023/12/28 04:13:23;;;;;;;4.25;3.65;;;;;;;;;;10300211;28;20053;-53
2023/12/28 04:18:21;;;;;;;6.85;4.10;;;;;;;;;;10300461;28;20072;-51
2023/12/28 04:23:21;;;;;;;20.92;13.25;;;;;;;;;;10290712;28;20502;-53
2023/12/28 04:28:19;;;;;;;17.70;11.02;;;;;;;;;;10288480;28;20052;-53
2023/12/28 04:33:18;;;;;;;7.65;4.10;;;;;;;;;;10291207;28;20485;-54
2023/12/28 04:38:17;;;;;;;4.93;4.22;;;;;;;;;;10290368;28;20064;-54
2023/12/28 04:43:17;;;;;;;4.70;3.67;;;;;;;;;;10288623;28;20076;-53
2023/12/28 04:48:15;;;;;;;5.72;3.55;;;;;;;;;;10291485;28;20075;-50
2023/12/28 04:53:14;;;;;;;4.30;3.55;;;;;;;;;;10289291;28;20073;-50
2023/12/28 04:58:13;;;;;;;5.85;3.65;;;;;;;;;;10288690;28;20095;-52
2023/12/28 05:03:13;;;;;;;4.65;4.13;;;;;;;;;;10292303;28;20080;-54
2023/12/28 05:08:11;;;;;;;5.03;3.53;;;;;;;;;;10294353;28;20510;-53
2023/12/28 05:13:09;;;;;;;4.57;3.92;;;;;;;;;;10288775;28;20076;-51
2023/12/28 05:18:08;;;;;;;4.10;3.60;;;;;;;;;;10284492;28;20069;-49
2023/12/28 05:23:08;;;;;;;6.32;5.60;;;;;;;;;;10288802;28;20080;-50
2023/12/28 05:28:06;;;;;;;7.00;4.63;;;;;;;;;;10290494;28;20064;-53
2023/12/28 05:33:05;;;;;;;8.02;7.07;;;;;;;;;;10288179;28;20083;-53
2023/12/28 05:38:03;;;;;;;6.00;4.72;;;;;;;;;;10289373;28;20088;-46
2023/12/28 05:43:03;;;;;;;8.20;4.57;;;;;;;;;;10289738;28;20080;-48
2023/12/28 05:48:01;;;;;;;6.85;4.32;;;;;;;;;;10287463;28;20072;-46
2023/12/28 05:53:00;;;;;;;7.60;4.35;;;;;;;;;;10289849;28;20068;-51
2023/12/28 05:57:58;;;;;;;4.75;4.18;;;;;;;;;;10287987;28;20072;-51
2023/12/28 06:02:59;;;;;;;4.90;4.10;;;;;;;;;;10286875;28;20060;-52
2023/12/28 06:07:57;;;;;;;6.43;4.85;;;;;;;;;;10287286;28;20075;-50
2023/12/28 06:12:55;;;;;;;12.63;6.55;;;;;;;;;;10282382;28;20060;-47
2023/12/28 06:17:54;;;;;;;6.80;4.68;;;;;;;;;;10287075;28;20076;-47
2023/12/28 06:22:53;;;;;;;10.77;7.10;;;;;;;;;;10286994;28;20076;-47
2023/12/28 06:27:52;;;;;;;5.20;4.57;;;;;;;;;;10288068;28;20068;-48
2023/12/28 06:32:50;;;;;;;5.07;4.43;;;;;;;;;;10282363;28;20080;-50
2023/12/28 06:37:49;;;;;;;5.63;4.47;;;;;;;;;;10286590;28;20079;-54
2023/12/28 06:42:48;;;;;;;8.18;5.20;;;;;;;;;;10285232;28;20081;-49
2023/12/28 06:47:46;;;;;;;6.22;4.47;;;;;;;;;;10287148;28;20083;-52
2023/12/28 06:52:45;;;;;;;5.57;4.95;;;;;;;;;;10288013;28;20076;-54
2023/12/28 06:57:43;;;;;;;7.57;5.05;;;;;;;;;;10286973;28;20572;-49
2023/12/28 07:02:43;;;;;;;6.38;5.43;;;;;;;;;;10284779;28;20064;-50
2023/12/28 07:07:41;;;;;;;6.70;5.07;;;;;;;;;;10286484;28;20037;-48
2023/12/28 07:12:39;;;;;;;5.72;4.72;;;;;;;;;;10285648;28;20073;-49
2023/12/28 07:17:39;;;;;;;24.27;15.52;;;;;;;;;;10280363;28;20076;-46
2023/12/28 07:22:39;;;;;;;20.85;16.38;;;;;;;;;;10285253;28;20466;-48
2023/12/28 07:27:37;;;;;;;13.70;11.70;;;;;;;;;;10282440;28;20081;-50
2023/12/28 07:32:35;;;;;;;10.90;8.52;;;;;;;;;;10284278;28;20065;-49
2023/12/28 07:37:34;;;;;;;6.43;5.35;;;;;;;;;;10288514;28;20099;-52
2023/12/28 07:42:33;;;;;;;8.15;5.82;;;;;;;;;;10290692;28;20533;-47
2023/12/28 07:47:33;;;;;;;10.85;6.53;;;;;;;;;;10288576;28;20083;-47
2023/12/28 07:52:31;;;;;;;7.15;5.90;;;;;;;;;;10290116;28;20083;-50
2023/12/28 07:57:30;;;;;;;24.25;15.80;;;;;;;;;;10291807;28;20080;-46
2023/12/28 08:02:30;;;;;;;25.15;19.55;;;;;;;;;;10290571;28;20088;-46
2023/12/28 08:07:29;;;;;;;29.75;19.92;;;;;;;;;;10293403;28;20076;-54
2023/12/28 08:12:28;;;;;;;21.58;18.95;;;;;;;;;;10289119;28;20076;-51
2023/12/28 08:17:26;;;;;;;10.57;9.45;;;;;;;;;;10290904;28;20068;-52
2023/12/28 08:22:27;;;;;;;12.93;9.60;;;;;;;;;;10286785;28;20510;-50
2023/12/28 08:27:26;;;;;;;20.65;12.35;;;;;;;;;;10289938;28;20071;-52
2023/12/28 08:32:24;;;;;;;17.33;15.30;;;;;;;;;;10292258;28;20080;-49
2023/12/28 08:37:22;;;;;;;21.92;16.83;;;;;;;;;;10291255;28;20083;-50
2023/12/28 08:42:24;;;;;;;23.23;19.83;;;;;;;;;;10288366;28;20080;-52
2023/12/28 08:47:23;;;;;;;26.00;22.08;;;;;;;;;;10291114;28;20076;-50
2023/12/28 08:52:21;;;;;;;18.83;11.07;;;;;;;;;;10288510;28;20095;-49
2023/12/28 08:57:19;;;;;;;22.52;15.57;;;;;;;;;;10284520;28;20072;-54
2023/12/28 09:02:38;;;;;;;51.75;33.53;;;;;;;;;;10285743;28;20072;-50
2023/12/28 09:07:38;;;;;;;16.67;8.63;;;;;;;;;;10288029;28;20087;-52
2023/12/28 09:12:36;;;;;;;14.45;10.65;;;;;;;;;;10288249;28;20080;-56
2023/12/28 09:17:35;;;;;;;78.80;42.42;;;;;;;;;;10288843;28;20068;-55
2023/12/28 09:22:35;;;;;;;53.45;32.67;;;;;;;;;;10289825;28;20075;-57
2023/12/28 09:27:33;;;;;;;18.27;11.75;;;;;;;;;;10288325;28;20076;-53
2023/12/28 09:32:31;;;;;;;16.58;10.32;;;;;;;;;;10291903;28;20099;-54
2023/12/28 09:37:30;;;;;;;15.43;9.00;;;;;;;;;;10287947;28;20064;-52
2023/12/28 09:42:32;;;;;;;20.70;12.27;;;;;;;;;;10289375;28;20454;-53
2023/12/28 09:47:32;;;;;;;9.10;6.20;;;;;;;;;;10286172;28;20110;-52
2023/12/28 09:52:31;;;;;;;8.85;7.43;;;;;;;;;;10285168;28;20060;-52
2023/12/28 09:57:31;;;;;;;8.15;5.60;;;;;;;;;;10284657;28;20072;-54
2023/12/28 10:02:29;;;;;;;21.52;13.32;;;;;;;;;;10286451;28;20068;-48
2023/12/28 10:07:27;;;;;;;14.82;12.15;;;;;;;;;;10288010;28;20072;-53
2023/12/28 10:12:27;;;;;;;13.80;10.18;;;;;;;;;;10284505;28;20065;-54
2023/12/28 10:17:27;;;;;;;17.00;12.30;;;;;;;;;;10286009;28;20069;-52
2023/12/28 10:22:25;;;;;;;13.65;8.40;;;;;;;;;;10292384;28;20482;-51
2023/12/28 10:27:24;;;;;;;11.52;7.97;;;;;;;;;;10287464;28;20076;-53
2023/12/28 10:32:24;;;;;;;9.77;8.45;;;;;;;;;;10286789;28;20087;-54
2023/12/28 10:37:26;;;;;;;21.10;10.93;;;;;;;;;;10284673;28;20076;-52
2023/12/28 10:42:29;;;;;;;11.57;8.80;;;;;;;;;;10309590;28;20091;-50
2023/12/28 10:47:29;;;;;;;11.60;7.18;;;;;;;;;;10309712;28;20071;-54
2023/12/28 10:52:29;;;;;;;9.88;6.88;;;;;;;;;;10295360;28;20082;-52
2023/12/28 10:57:32;;;;;;;10.80;7.53;;;;;;;;;;10311881;28;20516;-52
2023/12/28 11:02:34;;;;;;;10.18;8.30;;;;;;;;;;10304743;28;20743;-53
2023/12/28 11:07:34;;;;;;;14.60;8.75;;;;;;;;;;10314191;28;20072;-53
2023/12/28 11:12:32;;;;;;;9.82;7.20;;;;;;;;;;10300949;28;20147;-51
2023/12/28 11:17:31;;;;;;;11.65;7.20;;;;;;;;;;10299671;28;20120;-52
2023/12/28 11:22:30;;;;;;;19.15;8.75;;;;;;;;;;10303520;28;20083;-54
2023/12/28 11:27:36;;;;;;;11.50;7.63;;;;;;;;;;10290982;28;20076;-51
2023/12/28 11:32:36;;;;;;;17.08;9.10;;;;;;;;;;10289631;28;20522;-52
2023/12/28 11:37:35;;;;;;;18.02;8.95;;;;;;;;;;10294423;28;20094;-52
2023/12/28 11:42:35;;;;;;;12.93;7.57;;;;;;;;;;10289188;28;20105;-52
2023/12/28 11:47:33;;;;;;;18.42;13.43;;;;;;;;;;10290519;28;20084;-52
2023/12/28 11:52:32;;;;;;;22.70;13.05;;;;;;;;;;10294491;28;20510;-53
2023/12/28 11:57:31;;;;;;;13.02;7.35;;;;;;;;;;10288863;28;20072;-52
2023/12/28 12:02:30;;;;;;;21.48;13.65;;;;;;;;;;10292565;28;20075;-53
2023/12/28 12:07:29;;;;;;;18.40;8.65;;;;;;;;;;10287801;28;20072;-52
2023/12/28 12:12:27;;;;;;;8.68;6.15;;;;;;;;;;10295175;28;20079;-53
2023/12/28 12:17:25;;;;;;;10.43;6.95;;;;;;;;;;10289853;28;20060;-52
2023/12/28 12:22:26;;;;;;;17.90;10.98;;;;;;;;;;10286563;28;20485;-52
2023/12/28 12:27:27;;;;;;;12.85;7.95;;;;;;;;;;10282433;28;20068;-53
2023/12/28 12:32:25;;;;;;;9.80;6.97;;;;;;;;;;10289283;28;20081;-52
2023/12/28 12:37:24;;;;;;;18.60;13.90;;;;;;;;;;10284836;28;20106;-51
2023/12/28 12:42:24;;;;;;;21.65;13.45;;;;;;;;;;10285672;28;20072;-52
2023/12/28 12:47:23;;;;;;;36.08;19.60;;;;;;;;;;10287124;28;20485;-51
2023/12/28 12:52:23;;;;;;;23.00;15.07;;;;;;;;;;10287759;28;20079;-53
2023/12/28 12:57:21;;;;;;;51.70;31.98;;;;;;;;;;10286656;28;20082;-52
2023/12/28 13:02:23;;;;;;;28.20;17.10;;;;;;;;;;10288131;28;20065;-53
2023/12/28 13:07:21;;;;;;;20.73;15.43;;;;;;;;;;10287326;28;20105;-52
2023/12/28 13:12:20;;;;;;;11.38;7.00;;;;;;;;;;10285739;28;20076;-52
2023/12/28 13:17:18;;;;;;;17.42;9.30;;;;;;;;;;10288230;28;20072;-54
2023/12/28 13:22:18;;;;;;;18.15;11.13;;;;;;;;;;10285373;28;20554;-54
2023/12/28 13:27:16;;;;;;;23.08;11.38;;;;;;;;;;10285330;28;20065;-55
2023/12/28 13:32:15;;;;;;;14.88;10.15;;;;;;;;;;10286669;28;20124;-53
2023/12/28 13:37:13;;;;;;;14.93;10.98;;;;;;;;;;10284096;28;20057;-54
2023/12/28 13:42:13;;;;;;;14.63;9.88;;;;;;;;;;10286092;28;20071;-53
2023/12/28 13:47:11;;;;;;;24.00;14.32;;;;;;;;;;10282058;28;20092;-52
2023/12/28 13:52:09;;;;;;;25.45;12.45;;;;;;;;;;10286166;28;20601;-54
2023/12/28 13:57:08;;;;;;;47.10;26.35;;;;;;;;;;10288994;28;20079;-47
2023/12/28 14:02:08;;;;;;;53.17;34.90;;;;;;;;;;10282232;28;20079;-51
2023/12/28 14:07:06;;;;;;;56.65;39.03;;;;;;;;;;10289588;28;20545;-53
2023/12/28 14:12:04;;;;;;;39.25;26.27;;;;;;;;;;10290007;28;20088;-55
2023/12/28 14:17:04;;;;;;;42.92;27.65;;;;;;;;;;10286562;28;20068;-47
2023/12/28 14:22:04;;;;;;;32.75;25.13;;;;;;;;;;10284517;28;20466;-48
2023/12/28 14:27:03;;;;;;;24.83;16.88;;;;;;;;;;10282176;28;20073;-48
2023/12/28 14:32:02;;;;;;;31.55;22.48;;;;;;;;;;10282086;28;20537;-48
2023/12/28 14:37:00;;;;;;;36.08;25.25;;;;;;;;;;10279947;28;20072;-50
2023/12/28 14:42:03;;;;;;;50.60;38.80;;;;;;;;;;10285861;28;20072;-53
2023/12/28 14:47:01;;;;;;;56.40;41.17;;;;;;;;;;10286695;28;20178;-52
2023/12/28 14:51:59;;;;;;;52.05;34.10;;;;;;;;;;10284777;28;20084;-52
2023/12/28 14:56:58;;;;;;;32.05;25.27;;;;;;;;;;10282799;28;20075;-50
2023/12/28 15:01:57;;;;;;;40.83;26.23;;;;;;;;;;10286743;28;20499;-47
2023/12/28 15:06:55;;;;;;;36.70;27.58;;;;;;;;;;10287331;28;20064;-50
2023/12/28 15:11:54;;;;;;;32.00;22.63;;;;;;;;;;10284174;28;20052;-51
2023/12/28 15:16:52;;;;;;;25.63;18.75;;;;;;;;;;10285414;28;20068;-52
2023/12/28 15:21:52;;;;;;;57.22;34.75;;;;;;;;;;10284042;28;20068;-53
2023/12/28 15:26:51;;;;;;;116.82;73.15;;;;;;;;;;10281752;28;20082;-50
2023/12/28 15:31:49;;;;;;;170.68;92.97;;;;;;;;;;10284967;28;20132;-55
2023/12/28 15:36:47;;;;;;;110.68;64.00;;;;;;;;;;10287245;28;20486;-49
2023/12/28 15:41:47;;;;;;;115.32;62.80;;;;;;;;;;10286328;28;20076;-54
2023/12/28 15:46:45;;;;;;;47.13;30.10;;;;;;;;;;10278665;28;20072;-52
2023/12/28 15:51:43;;;;;;;30.52;22.02;;;;;;;;;;10278077;28;20325;-53
2023/12/28 15:56:42;;;;;;;24.25;17.73;;;;;;;;;;10279845;28;20708;-52
2023/12/28 16:01:41;;;;;;;26.20;14.93;;;;;;;;;;10289708;28;20071;-53
2023/12/28 16:06:40;;;;;;;18.17;14.02;;;;;;;;;;10290205;28;20068;-52
2023/12/28 16:11:38;;;;;;;19.77;14.57;;;;;;;;;;10293335;28;20490;-53
2023/12/28 16:16:36;;;;;;;14.95;11.63;;;;;;;;;;10291937;28;21071;-52
2023/12/28 16:21:36;;;;;;;21.13;16.38;;;;;;;;;;10291141;28;20458;-53
2023/12/28 16:26:35;;;;;;;37.20;26.15;;;;;;;;;;10289879;28;20486;-52
2023/12/28 16:31:33;;;;;;;26.90;20.02;;;;;;;;;;10290374;28;20509;-55
2023/12/28 16:36:32;;;;;;;22.20;17.85;;;;;;;;;;10291771;28;20069;-54
2023/12/28 16:41:31;;;;;;;21.20;17.77;;;;;;;;;;10288652;28;20072;-53
2023/12/28 16:46:30;;;;;;;29.60;22.98;;;;;;;;;;10283219;28;20062;-56
2023/12/28 16:51:28;;;;;;;29.45;20.48;;;;;;;;;;10286556;28;20065;-53
2023/12/28 16:56:26;;;;;;;24.45;21.88;;;;;;;;;;10288589;28;20069;-52
2023/12/28 17:01:27;;;;;;;17.83;12.15;;;;;;;;;;10284253;28;20076;-54
2023/12/28 17:06:26;;;;;;;14.13;12.45;;;;;;;;;;10287065;28;20096;-53
2023/12/28 17:11:24;;;;;;;14.57;12.23;;;;;;;;;;10289647;28;20075;-53
2023/12/28 17:16:22;;;;;;;16.80;13.75;;;;;;;;;;10289759;28;20045;-53
2023/12/28 17:21:30;;;;;;;17.85;15.02;;;;;;;;;;10289033;28;20552;-52
2023/12/28 17:26:28;;;;;;;19.73;15.07;;;;;;;;;;10285620;28;20104;-53
2023/12/28 17:31:29;;;;;;;14.00;12.65;;;;;;;;;;10289201;28;20072;-54
2023/12/28 17:36:31;;;;;;;11.98;10.45;;;;;;;;;;10289343;28;20076;-52
2023/12/28 17:41:30;;;;;;;16.75;11.60;;;;;;;;;;10288827;28;20083;-54
2023/12/28 17:46:34;;;;;;;19.10;15.05;;;;;;;;;;10286463;28;20459;-54
2023/12/28 17:51:34;;;;;;;22.57;18.83;;;;;;;;;;10290386;28;20569;-53
2023/12/28 17:56:32;;;;;;;20.55;18.13;;;;;;;;;;10288936;28;20135;-52
2023/12/28 18:01:31;;;;;;;19.23;15.85;;;;;;;;;;10287832;28;20076;-55
2023/12/28 18:06:30;;;;;;;15.68;13.20;;;;;;;;;;10290267;28;20075;-55
2023/12/28 18:11:30;;;;;;;12.05;8.65;;;;;;;;;;10288398;28;20494;-53
2023/12/28 18:16:28;;;;;;;10.30;8.77;;;;;;;;;;10287845;28;20068;-53
2023/12/28 18:21:26;;;;;;;12.48;9.50;;;;;;;;;;10286749;28;20451;-50
2023/12/28 18:26:25;;;;;;;14.68;11.60;;;;;;;;;;10286760;28;20073;-52
2023/12/28 18:31:27;;;;;;;19.70;14.20;;;;;;;;;;10287312;28;20075;-54
2023/12/28 18:36:25;;;;;;;12.80;11.35;;;;;;;;;;10288773;28;20078;-55
2023/12/28 18:41:24;;;;;;;16.35;11.48;;;;;;;;;;10287835;28;20072;-54
2023/12/28 18:46:22;;;;;;;11.77;9.85;;;;;;;;;;10287439;28;20102;-52
2023/12/28 18:51:22;;;;;;;11.85;9.07;;;;;;;;;;10288624;28;20087;-53
2023/12/28 18:56:20;;;;;;;12.27;8.57;;;;;;;;;;10285893;28;20076;-54
2023/12/28 19:01:18;;;;;;;15.55;11.43;;;;;;;;;;10286086;28;20116;-54
2023/12/28 19:06:17;;;;;;;13.98;11.45;;;;;;;;;;10286022;28;20083;-53
2023/12/28 19:11:16;;;;;;;11.35;9.30;;;;;;;;;;10287076;28;20076;-55
2023/12/28 19:16:18;;;;;;;11.35;8.50;;;;;;;;;;10280722;28;20524;-53
2023/12/28 19:21:17;;;;;;;12.55;9.00;;;;;;;;;;10282246;28;20080;-54
2023/12/28 19:26:18;;;;;;;12.32;8.90;;;;;;;;;;10287665;28;20099;-53
2023/12/28 19:31:18;;;;;;;12.60;8.68;;;;;;;;;;10286077;28;20083;-54
2023/12/28 19:36:16;;;;;;;13.52;9.45;;;;;;;;;;10294616;28;20083;-54
2023/12/28 19:41:16;;;;;;;10.75;8.38;;;;;;;;;;10296146;28;20080;-54
2023/12/28 19:46:14;;;;;;;10.00;7.88;;;;;;;;;;10291024;28;20064;-54
2023/12/28 19:51:13;;;;;;;13.38;8.45;;;;;;;;;;10290760;28;20076;-54
2023/12/28 19:56:11;;;;;;;10.18;8.38;;;;;;;;;;10294041;28;20072;-53
2023/12/28 20:01:12;;;;;;;12.57;8.13;;;;;;;;;;10292407;28;20080;-52
2023/12/28 20:06:10;;;;;;;13.00;8.20;;;;;;;;;;10293743;28;20065;-54
2023/12/28 20:11:09;;;;;;;10.23;7.90;;;;;;;;;;10292253;28;20060;-52
2023/12/28 20:16:07;;;;;;;11.70;9.68;;;;;;;;;;10295225;28;20072;-49
2023/12/28 20:21:08;;;;;;;13.27;10.02;;;;;;;;;;10292050;28;20077;-54
2023/12/28 20:26:07;;;;;;;10.98;8.70;;;;;;;;;;10292458;28;20076;-52
2023/12/28 20:31:05;;;;;;;13.82;8.75;;;;;;;;;;10292243;28;20107;-52
2023/12/28 20:36:04;;;;;;;11.85;8.95;;;;;;;;;;10292276;28;20459;-54
2023/12/28 20:41:05;;;;;;;14.00;11.50;;;;;;;;;;10287832;28;20076;-51
2023/12/28 20:46:05;;;;;;;20.00;14.60;;;;;;;;;;10287515;28;20080;-55
2023/12/28 20:51:05;;;;;;;14.30;9.27;;;;;;;;;;10292403;28;20518;-54
2023/12/28 20:56:05;;;;;;;13.18;10.05;;;;;;;;;;10291824;28;20466;-54
2023/12/28 21:01:03;;;;;;;13.77;10.48;;;;;;;;;;10290488;28;20084;-51
2023/12/28 21:06:01;;;;;;;15.07;10.25;;;;;;;;;;10291665;28;20513;-53
2023/12/28 21:11:00;;;;;;;11.57;10.23;;;;;;;;;;10290347;28;20069;-53
2023/12/28 21:15:59;;;;;;;15.15;11.93;;;;;;;;;;10289810;28;20080;-55
2023/12/28 21:20:58;;;;;;;20.27;13.48;;;;;;;;;;10290644;28;20083;-54
2023/12/28 21:26:08;;;;;;;25.27;14.98;;;;;;;;;;10291588;28;20162;-53
2023/12/28 21:31:08;;;;;;;20.42;15.38;;;;;;;;;;10289816;28;20072;-54
2023/12/28 21:36:07;;;;;;;20.80;16.27;;;;;;;;;;10289906;28;20080;-55
2023/12/28 21:41:05;;;;;;;27.00;20.35;;;;;;;;;;10288024;28;20525;-52
2023/12/28 21:46:05;;;;;;;24.15;19.85;;;;;;;;;;10288003;28;20056;-54
2023/12/28 21:51:05;;;;;;;24.10;18.40;;;;;;;;;;10289747;28;20183;-54
2023/12/28 21:56:03;;;;;;;26.08;18.02;;;;;;;;;;10290322;28;20076;-53
2023/12/28 22:01:01;;;;;;;25.58;19.95;;;;;;;;;;10288321;28;20084;-52
2023/12/28 22:06:00;;;;;;;23.88;19.85;;;;;;;;;;10289667;28;20072;-52
2023/12/28 22:11:00;;;;;;;30.38;20.67;;;;;;;;;;10288905;28;20099;-54
2023/12/28 22:15:59;;;;;;;28.25;19.80;;;;;;;;;;10288718;28;20527;-53
2023/12/28 22:20:58;;;;;;;29.00;22.40;;;;;;;;;;10286735;28;20071;-53
2023/12/28 22:25:56;;;;;;;25.00;18.42;;;;;;;;;;10287435;28;20068;-54
2023/12/28 22:30:56;;;;;;;26.38;20.98;;;;;;;;;;10287551;28;20088;-53
2023/12/28 22:35:54;;;;;;;29.00;19.23;;;;;;;;;;10282829;28;20076;-53
2023/12/28 22:40:52;;;;;;;29.40;20.95;;;;;;;;;;10282317;28;20044;-53
2023/12/28 22:45:50;;;;;;;29.48;19.58;;;;;;;;;;10287439;28;20073;-53
2023/12/28 22:50:50;;;;;;;23.50;18.48;;;;;;;;;;10286987;28;20087;-52
2023/12/28 22:55:48;;;;;;;27.45;19.58;;;;;;;;;;10287314;28;20068;-52
2023/12/28 23:00:46;;;;;;;24.98;19.70;;;;;;;;;;10287957;28;20108;-52
2023/12/28 23:05:45;;;;;;;28.98;21.90;;;;;;;;;;10284696;28;20090;-49
2023/12/28 23:10:44;;;;;;;28.75;22.15;;;;;;;;;;10294014;28;20064;-53
2023/12/28 23:15:43;;;;;;;27.02;19.80;;;;;;;;;;10293273;28;20102;-50
2023/12/28 23:20:41;;;;;;;27.38;21.30;;;;;;;;;;10295598;28;20072;-53
2023/12/28 23:25:39;;;;;;;32.10;21.98;;;;;;;;;;10293662;28;20084;-55
2023/12/28 23:30:39;;;;;;;30.40;20.23;;;;;;;;;;10294716;28;20068;-54
2023/12/28 23:35:37;;;;;;;25.30;20.20;;;;;;;;;;10293060;28;20088;-54
2023/12/28 23:40:35;;;;;;;29.77;23.08;;;;;;;;;;10293878;28;20068;-52
2023/12/28 23:45:34;;;;;;;24.20;19.02;;;;;;;;;;10295051;28;20467;-52
2023/12/28 23:50:33;;;;;;;24.58;17.52;;;;;;;;;;10294115;28;20101;-53
2023/12/28 23:55:31;;;;;;;26.52;18.80;;;;;;;;;;10293333;28;20076;-54
